Time;durP1;ratioP1;P1;durP2;ratioP2;P2;SDS_P1;SDS_P2;PMS_P1;PMS_P2;Temp;Humidity;BMP_temperature;BMP_pressure;BME280_temperature;BME280_humidity;BME280_pressure;Samples;Min_cycle;Max_cycle;Signal;HPM_P1;HPM_P2
2022/10/22 13:36:35;;;;;;;;;0.00;0.00;;;;;21.39;100.00;100503.25;5141906;27;250831;-93
2022/10/22 13:39:01;;;;;;;;;0.00;0.00;;;;;21.30;100.00;100504.72;5140029;27;45370;-94
2022/10/22 13:41:30;;;;;;;;;1.00;1.00;;;;;21.21;100.00;100513.38;5117779;27;45337;-94
2022/10/22 13:43:56;;;;;;;;;1.50;1.50;;;;;20.21;100.00;100372.97;5101550;27;45296;-95
2022/10/22 13:46:24;;;;;;;;;1.00;1.00;;;;;20.46;100.00;100444.72;5100118;27;47121;-94
2022/10/22 13:48:54;;;;;;;;;0.75;0.75;;;;;19.49;100.00;100311.25;5100465;27;45338;-95
2022/10/22 13:51:22;;;;;;;;;0.00;0.00;;;;;19.84;100.00;100400.28;5102831;27;45196;-95
2022/10/22 13:53:55;;;;;;;;;0.00;0.00;;;;;19.26;100.00;100329.59;5123189;27;44869;-92
2022/10/22 13:56:21;;;;;;;;;2.25;0.75;;;;;20.00;100.00;100437.75;5122051;27;47334;-93
2022/10/22 13:58:47;;;;;;;;;2.00;2.00;;;;;19.98;100.00;100431.63;5103535;27;45328;-93
2022/10/22 14:01:29;;;;;;;;;1.00;1.00;;;;;19.66;100.00;100383.47;5113618;27;45780;-93
2022/10/22 14:04:00;;;;;;;;;0.50;0.50;;;;;20.05;100.00;100438.31;5115901;27;45628;-92
2022/10/22 14:06:30;;;;;;;;;0.25;0.25;;;;;19.08;100.00;100272.63;5099407;27;47990;-93
2022/10/22 14:09:11;;;;;;;;;1.00;1.00;;;;;19.33;100.00;100322.91;5098792;27;45394;-92
2022/10/22 14:11:37;;;;;;;;;0.00;0.00;;;;;18.70;100.00;100234.75;5101787;27;45361;-92
2022/10/22 14:14:07;;;;;;;;;1.75;1.75;;;;;19.33;100.00;100359.59;5106541;27;45219;-95
2022/10/22 14:16:34;;;;;;;;;1.25;1.25;;;;;19.70;100.00;100430.56;5107545;27;45537;-95
2022/10/22 14:19:02;;;;;;;;;1.00;1.00;;;;;20.03;100.00;100499.25;5123284;27;45443;-94
2022/10/22 14:21:36;;;;;;;;;1.00;1.00;;;;;19.02;100.00;100336.44;5109284;27;45201;-93
2022/10/22 14:24:01;;;;;;;;;0.50;0.50;;;;;18.64;100.00;100278.78;5102568;27;45451;-96
2022/10/22 14:26:31;;;;;;;;;1.00;0.75;;;;;18.65;100.00;100316.16;5126917;27;47002;-95
2022/10/22 14:29:02;;;;;;;;;1.00;0.75;;;;;18.70;100.00;100323.06;5138012;27;44904;-95
2022/10/22 14:31:29;;;;;;;;;0.00;0.00;;;;;19.15;100.00;100399.03;5118656;27;44775;-92
2022/10/22 14:33:55;;;;;;;;;1.75;1.00;;;;;19.32;100.00;100443.59;5124111;27;44977;-93
2022/10/22 14:36:20;;;;;;;;;1.00;1.00;;;;;19.56;100.00;100473.44;5118382;27;47335;-93
2022/10/22 14:38:47;;;;;;;;;1.00;1.00;;;;;18.42;100.00;100292.56;5121152;27;45341;-92
2022/10/22 14:41:24;;;;;;;;;1.75;0.75;;;;;18.79;100.00;100366.22;5141217;27;45392;-94
2022/10/22 14:43:51;;;;;;;;;1.00;1.00;;;;;19.03;100.00;100405.97;5143186;27;45677;-95
2022/10/22 14:46:17;;;;;;;;;2.00;2.00;;;;;18.69;100.00;100348.09;5126882;27;46284;-93
2022/10/22 14:48:43;;;;;;;;;1.75;1.75;;;;;19.02;100.00;100388.16;5128283;27;45246;-95
2022/10/22 14:51:17;;;;;;;;;1.00;1.00;;;;;19.40;100.00;100464.56;5104906;27;45300;-94
2022/10/22 14:53:43;;;;;;;;;1.00;1.00;;;;;18.47;100.00;100304.69;5113089;27;45509;-91
2022/10/22 14:56:21;;;;;;;;;2.75;2.00;;;;;17.33;100.00;100115.91;5120168;27;48116;-93
2022/10/22 14:58:47;;;;;;;;;1.50;1.50;;;;;18.10;100.00;100249.78;5124416;27;45876;-92
2022/10/22 15:01:12;;;;;;;;;0.00;0.00;;;;;18.28;100.00;100294.19;5129273;27;45265;-93
2022/10/22 15:03:37;;;;;;;;;1.00;1.00;;;;;18.86;100.00;100388.19;5128424;27;45656;-93
2022/10/22 15:06:04;;;;;;;;;1.00;1.00;;;;;19.18;100.00;100449.75;5109116;27;47257;-93
2022/10/22 15:08:29;;;;;;;;;0.50;0.50;;;;;17.61;100.00;100193.66;5112624;27;45449;-93
2022/10/22 15:11:07;;;;;;;;;2.25;2.25;;;;;18.14;100.00;100278.06;5139559;27;45317;-92
2022/10/22 15:13:34;;;;;;;;;2.25;2.25;;;;;18.40;100.00;100342.59;5132795;27;45152;-94
2022/10/22 15:16:00;;;;;;;;;1.75;1.75;;;;;18.80;100.00;100400.09;5128646;27;47076;-93
2022/10/22 15:18:27;;;;;;;;;1.75;1.75;;;;;17.99;100.00;100252.19;5112805;27;45230;-93
2022/10/22 15:20:59;;;;;;;;;2.50;2.50;;;;;18.40;100.00;100339.91;5117910;27;44788;-95
2022/10/22 15:23:25;;;;;;;;;2.00;1.50;;;;;17.39;100.00;100168.16;5135427;27;44892;-96
2022/10/22 15:25:51;;;;;;;;;2.00;2.00;;;;;18.76;100.00;100403.03;5111364;27;46040;-95
2022/10/22 15:28:16;;;;;;;;;2.00;2.00;;;;;18.37;100.00;100322.25;5108898;27;45209;-96
2022/10/22 15:30:51;;;;;;;;;2.00;2.00;;;;;19.12;100.00;100471.53;5114700;27;45277;-94
2022/10/22 15:33:29;;;;;;;;;1.25;1.25;;;;;17.29;100.00;100158.91;5137948;27;45326;-95
2022/10/22 15:36:32;;;;;;;;;2.75;1.75;;;;;19.05;100.00;100452.25;5112217;27;46498;-94
2022/10/22 15:38:58;;;;;;;;;2.25;2.25;;;;;18.53;100.00;100367.72;5122202;27;45434;-93
2022/10/22 15:41:23;;;;;;;;;0.00;0.00;;;;;17.85;100.00;100258.25;5110659;27;45341;-93
2022/10/22 15:43:48;;;;;;;;;2.00;1.75;;;;;17.07;100.00;100122.69;5111499;27;44915;-96
2022/10/22 15:46:18;;;;;;;;;3.00;3.00;;;;;19.04;100.00;100449.66;5126504;27;45499;-96
2022/10/22 15:48:44;;;;;;;;;1.25;1.25;;;;;18.39;100.00;100341.75;5108353;27;45305;-96
2022/10/22 15:51:15;;;;;;;;;2.25;1.00;;;;;17.88;100.00;100261.63;5104620;27;45266;-96
2022/10/22 15:53:41;;;;;;;;;2.00;2.00;;;;;17.03;100.00;100129.13;5106531;27;45204;-95
2022/10/22 15:56:13;;;;;;;;;1.00;1.00;;;;;18.01;100.00;100285.06;5118949;27;47721;-94
2022/10/22 15:58:38;;;;;;;;;2.75;2.75;;;;;18.17;100.00;100314.47;5103989;27;45463;-96
2022/10/22 16:01:15;;;;;;;;;2.25;2.25;;;;;19.05;100.00;100436.19;5103825;27;45763;-96
2022/10/22 16:03:48;;;;;;;;;0.75;0.75;;;;;17.68;100.00;100197.72;5111621;27;45415;-96
2022/10/22 16:06:14;;;;;;;;;2.00;2.00;;;;;16.80;100.00;100061.81;5105611;27;47243;-92
2022/10/22 16:08:57;;;;;;;;;0.25;0.25;;;;;17.13;100.00;100119.69;5104154;27;45346;-96
2022/10/22 16:11:36;;;;;;;;;3.00;2.00;;;;;16.71;100.00;100054.31;5086514;27;45262;-93
2022/10/22 16:14:03;;;;;;;;;2.00;2.00;;;;;17.00;100.00;100087.44;5105077;27;45442;-93
2022/10/22 16:16:38;;;;;;;;;4.00;4.00;;;;;18.97;100.00;100412.53;5109320;27;47239;-92
2022/10/22 16:19:04;;;;;;;;;3.00;3.00;;;;;18.61;100.00;100357.47;5130225;27;45243;-94
2022/10/22 16:21:39;;;;;;;;;3.00;3.00;;;;;17.91;100.00;100255.28;5130048;27;45176;-93
2022/10/22 16:24:25;;;;;;;;;5.50;4.00;;;;;18.86;100.00;100417.66;5135669;27;45461;-93
2022/10/22 16:26:52;;;;;;;;;2.75;2.75;;;;;17.35;100.00;100177.25;5116494;27;47114;-95
2022/10/22 16:29:32;;;;;;;;;;;;;;;;;;;;;
2022/10/22 16:32:01;;;;;;;;;3.00;3.00;;;;;17.76;100.00;100235.56;5120852;27;68761;-92
2022/10/22 16:34:40;;;;;;;;;3.00;3.00;;;;;18.96;100.00;100445.63;5100554;27;45536;-94
2022/10/22 16:37:09;;;;;;;;;5.00;5.00;;;;;18.19;100.00;100294.72;5110155;27;46263;-94
2022/10/22 16:39:37;;;;;;;;;5.50;5.00;;;;;17.52;100.00;100195.91;5115918;27;45176;-92
2022/10/22 16:45:11;;;;;;;;;3.25;3.25;;;;;17.75;100.00;100260.59;5133797;27;45203;-94
2022/10/22 16:48:09;;;;;;;;;2.00;2.00;;;;;18.79;100.00;100440.31;5121661;27;45516;-95
2022/10/22 16:54:22;;;;;;;;;3.00;3.00;;;;;16.61;100.00;100106.41;5123451;27;45375;-96
2022/10/22 16:57:11;;;;;;;;;2.00;2.00;;;;;17.53;100.00;100267.09;5118340;27;45514;-93
2022/10/22 16:59:38;;;;;;;;;5.25;3.25;;;;;16.70;100.00;100114.81;5128729;27;48235;-95
2022/10/22 17:16:24;;;;;;;;;8.00;5.75;;;;;18.61;100.00;100464.50;5064599;28;45459;-93
2022/10/22 17:18:52;;;;;;;;;6.00;5.25;;;;;18.50;100.00;100472.25;5041335;28;45315;-93
2022/10/22 17:21:25;;;;;;;;;3.00;3.00;;;;;17.20;100.00;100265.28;5073885;28;44911;-96
2022/10/22 17:30:39;;;;;;;;;7.75;6.75;;;;;17.58;100.00;100377.28;5001923;28;45281;-94
2022/10/22 17:33:06;;;;;;;;;3.75;3.75;;;;;17.08;100.00;100286.41;5003527;28;45241;-92
2022/10/22 17:35:51;;;;;;;;;4.50;4.50;;;;;16.95;100.00;100267.50;4987955;28;46801;-96
2022/10/22 17:38:39;;;;;;;;;5.25;5.25;;;;;17.07;100.00;100292.72;4994933;28;45319;-95
2022/10/22 17:41:10;;;;;;;;;5.25;4.25;;;;;16.23;100.00;100154.59;5008449;28;44858;-96
2022/10/22 17:43:37;;;;;;;;;5.00;5.00;;;;;18.14;100.00;100470.59;5011781;28;44911;-95
2022/10/22 17:49:18;;;;;;;;;6.50;6.25;;;;;18.09;100.00;100465.50;5013374;28;45360;-92
2022/10/22 17:51:49;;;;;;;;;6.00;6.00;;;;;16.23;100.00;100174.13;4984665;28;45532;-92
2022/10/22 17:57:47;;;;;;;;;4.75;4.75;;;;;16.52;100.00;100214.47;5011361;28;45695;-90
2022/10/22 18:00:14;;;;;;;;;5.25;4.75;;;;;17.98;100.00;100459.88;4985095;28;45303;-93
2022/10/22 18:02:41;;;;;;;;;4.00;3.00;;;;;17.21;100.00;100344.44;4992474;27;45196;-92
2022/10/22 18:05:07;;;;;;;;;4.00;4.00;;;;;17.22;100.00;100321.28;5105314;27;45276;-93
2022/10/22 18:07:32;;;;;;;;;7.00;5.75;;;;;17.48;100.00;100405.41;5108191;27;47180;-96
2022/10/22 18:10:03;;;;;;;;;5.75;5.00;;;;;15.93;100.00;100147.19;5126457;27;45244;-95
2022/10/22 18:12:28;;;;;;;;;6.00;4.00;;;;;17.18;100.00;100349.94;5126081;27;44765;-93
2022/10/22 18:14:54;;;;;;;;;7.00;4.25;;;;;17.41;100.00;100401.31;5108499;27;45684;-93
2022/10/22 18:17:23;;;;;;;;;5.25;5.00;;;;;16.85;100.00;100315.97;5135474;27;45269;-93
2022/10/22 18:19:48;;;;;;;;;4.25;3.75;;;;;17.24;100.00;100370.13;5120080;27;44799;-92
2022/10/22 18:22:14;;;;;;;;;3.75;3.75;;;;;17.77;100.00;100464.50;5108082;27;45490;-94
2022/10/22 18:24:39;;;;;;;;;2.25;2.25;;;;;15.70;100.00;100114.50;5090139;27;45303;-94
2022/10/22 18:27:05;;;;;;;;;4.00;4.00;;;;;17.14;100.00;100372.41;5086707;27;48289;-96
2022/10/22 18:29:31;;;;;;;;;4.50;4.00;;;;;17.27;100.00;100398.50;5101853;27;45807;-95
2022/10/22 18:31:56;;;;;;;;;6.25;4.25;;;;;17.26;100.00;100383.41;5086039;27;45325;-96
2022/10/22 18:34:21;;;;;;;;;6.50;6.00;;;;;16.71;100.00;100297.09;5101788;27;45327;-95
2022/10/22 18:36:47;;;;;;;;;4.75;4.75;;;;;16.14;100.00;100215.44;5084628;27;47147;-96
2022/10/22 18:39:15;;;;;;;;;6.00;6.00;;;;;17.59;100.00;100458.28;5102523;27;45300;-95
2022/10/22 18:41:42;;;;;;;;;5.75;4.75;;;;;17.32;100.00;100420.47;5108840;27;45174;-96
2022/10/22 18:44:10;;;;;;;;;5.75;5.75;;;;;17.54;100.00;100457.66;5093696;27;45193;-93
2022/10/22 18:46:39;;;;;;;;;5.75;4.50;;;;;16.52;100.00;100290.03;5097310;27;47312;-94
2022/10/22 18:49:06;;;;;;;;;6.25;6.25;;;;;17.20;100.00;100401.47;5107385;27;45305;-92
2022/10/22 18:51:33;;;;;;;;;5.00;5.00;;;;;15.88;100.00;100192.72;5103887;27;45233;-92
2022/10/22 18:53:59;;;;;;;;;8.00;6.25;;;;;17.51;100.00;100472.03;5121010;27;45519;-91
2022/10/22 18:56:25;;;;;;;;;6.50;6.50;;;;;17.04;100.00;100376.47;5124364;27;47405;-91
2022/10/22 18:58:50;;;;;;;;;6.25;6.25;;;;;16.56;100.00;100311.22;5111917;27;45394;-92
2022/10/22 19:01:23;;;;;;;;;8.25;5.00;;;;;15.69;100.00;100134.06;5107558;27;45271;-91
2022/10/22 19:03:49;;;;;;;;;8.00;6.00;;;;;17.49;100.00;100436.53;5088812;27;45351;-91
2022/10/22 19:06:23;;;;;;;;;10.00;7.00;;;;;17.02;100.00;100367.66;5081698;27;46663;-91
2022/10/22 19:08:48;;;;;;;;;6.75;6.75;;;;;16.82;100.00;100344.59;5065239;27;45401;-92
2022/10/22 19:11:16;;;;;;;;;8.50;8.50;;;;;17.04;100.00;100352.44;5096730;27;45588;-91
2022/10/22 19:13:42;;;;;;;;;9.00;8.50;;;;;17.53;100.00;100443.41;5097953;27;45312;-92
2022/10/22 19:16:14;;;;;;;;;10.75;10.00;;;;;17.73;100.00;100468.25;5097428;27;47946;-91
2022/10/22 19:18:40;;;;;;;;;9.00;9.00;;;;;17.59;100.00;100447.59;5088942;27;45421;-91
2022/10/22 19:21:06;;;;;;;;;9.00;7.50;;;;;17.46;100.00;100407.28;5082203;27;45574;-95
2022/10/22 19:23:31;;;;;;;;;10.75;8.50;;;;;16.63;100.00;100264.63;5103881;27;45390;-94
2022/10/22 19:26:09;;;;;;;;;8.50;8.50;;;;;16.97;100.00;100322.50;5085832;27;46483;-94
2022/10/22 19:28:38;;;;;;;;;13.25;11.50;;;;;17.48;100.00;100424.09;5086092;27;45267;-94
2022/10/22 19:31:04;;;;;;;;;9.75;9.75;;;;;17.40;100.00;100404.94;5090459;27;45223;-94
2022/10/22 19:33:30;;;;;;;;;10.00;10.00;;;;;16.65;100.00;100294.75;5085772;27;45312;-94
2022/10/22 19:35:55;;;;;;;;;9.50;9.50;;;;;16.37;100.00;100231.22;5085082;27;48467;-95
2022/10/22 19:38:26;;;;;;;;;10.00;8.50;;;;;17.73;100.00;100465.59;5083025;27;45354;-94
2022/10/22 19:40:51;;;;;;;;;10.00;10.00;;;;;17.01;100.00;100329.44;5066871;27;45319;-95
2022/10/22 19:43:17;;;;;;;;;10.75;9.00;;;;;17.66;100.00;100465.06;5085869;27;45227;-95
2022/10/22 19:45:42;;;;;;;;;10.00;10.00;;;;;15.91;100.00;100173.03;5079523;27;45348;-94
2022/10/22 19:48:08;;;;;;;;;11.25;11.00;;;;;16.45;100.00;100274.41;5081264;27;45236;-94
2022/10/22 19:50:34;;;;;;;;;9.25;9.25;;;;;17.58;100.00;100462.78;5104933;27;45089;-94
2022/10/22 19:53:01;;;;;;;;;12.00;10.25;;;;;16.77;100.00;100319.97;5108221;27;45107;-94
2022/10/22 19:55:27;;;;;;;;;10.75;10.50;;;;;17.17;100.00;100401.63;5103797;27;46463;-95
2022/10/22 19:57:53;;;;;;;;;11.75;10.75;;;;;17.56;100.00;100469.97;5104508;27;45336;-94
2022/10/22 20:00:18;;;;;;;;;13.50;12.75;;;;;16.60;100.00;100302.13;5081982;27;45234;-94
2022/10/22 20:02:44;;;;;;;;;13.75;13.00;;;;;16.37;100.00;100272.13;5101378;27;45303;-94
2022/10/22 20:05:15;;;;;;;;;14.50;13.00;;;;;15.23;100.00;100097.19;5082414;27;45649;-94
2022/10/22 20:07:40;;;;;;;;;;;;;;;17.58;100.00;100468.13;5100756;27;45274;-96
2022/10/22 20:10:06;;;;;;;;;;;;;;;17.54;100.00;100460.34;5098854;27;45314;-95
2022/10/22 20:12:31;;;;;;;;;;;;;;;17.48;100.00;100450.81;5106451;27;44983;-95
2022/10/22 20:18:00;;;;;;;;;;;;;;;17.29;100.00;100450.00;5122742;27;44776;-94
2022/10/22 20:20:25;;;;;;;;;;;;;;;17.16;100.00;100450.63;5115675;27;45313;-95
2022/10/22 20:22:50;;;;;;;;;;;;;;;17.06;100.00;100444.00;5105989;27;45310;-95
2022/10/22 20:25:16;;;;;;;;;;;;;;;16.96;100.00;100446.25;5105770;27;46555;-95
2022/10/22 20:27:41;;;;;;;;;;;;;;;16.89;100.00;100454.66;5108650;27;45431;-96
2022/10/22 20:30:11;;;;;;;;;;;;;;;16.81;100.00;100450.50;5103307;27;45333;-95
2022/10/22 20:32:36;;;;;;;;;;;;;;;16.74;100.00;100457.06;5101488;27;45261;-96
2022/10/22 20:35:03;;;;;;;;;;;;;;;16.23;100.00;100375.88;5104728;27;48123;-94
2022/10/22 20:37:28;;;;;;;;;;;;;;;16.63;100.00;100451.38;5105482;27;45229;-95
2022/10/22 20:39:55;;;;;;;;;;;;;;;16.58;100.00;100445.38;5117222;27;44751;-95
2022/10/22 20:42:20;;;;;;;;;;;;;;;16.51;100.00;100437.66;5117591;27;45030;-95
2022/10/22 20:44:45;;;;;;;;;;;;;;;16.48;100.00;100442.28;5109659;27;46343;-95
2022/10/22 20:47:11;;;;;;;;;;;;;;;16.44;100.00;100446.91;5105922;27;45183;-96
2022/10/22 20:49:36;;;;;;;;;;;;;;;16.40;100.00;100445.31;5104051;27;45247;-95
2022/10/22 20:52:01;;;;;;;;;;;;;;;16.38;100.00;100447.16;5104721;27;45297;-95
2022/10/22 20:54:28;;;;;;;;;;;;;;;16.34;100.00;100446.47;5108040;27;46509;-95
2022/10/22 20:56:53;;;;;;;;;;;;;;;16.30;100.00;100438.66;5113124;27;44791;-96
2022/10/22 20:59:20;;;;;;;;;;;;;;;16.29;100.00;100453.81;5117959;27;45283;-94
2022/10/22 21:01:46;;;;;;;;;;;;;;;16.26;100.00;100453.97;5110247;27;45285;-95
2022/10/22 21:04:12;;;;;;;;;;;;;;;16.23;100.00;100448.75;5105055;27;47013;-96
2022/10/22 21:06:39;;;;;;;;;;;;;;;16.21;100.00;100447.09;5104208;27;45162;-96
2022/10/22 21:09:06;;;;;;;;;;;;;;;16.20;100.00;100453.34;5084795;27;45387;-95
2022/10/22 21:11:31;;;;;;;;;;;;;;;16.19;100.00;100446.31;5103405;27;45528;-95
2022/10/22 21:13:57;;;;;;;;;;;;;;;16.17;100.00;100438.38;5104299;27;46681;-96
2022/10/22 21:16:22;;;;;;;;;;;;;;;16.14;100.00;100439.38;5106040;27;45218;-95
2022/10/22 21:18:48;;;;;;;;;;;;;;;16.13;100.00;100437.63;5106432;27;45240;-95
2022/10/22 21:21:16;;;;;;;;;;;;;;;16.11;100.00;100434.19;5099854;27;45669;-95
2022/10/22 21:23:41;;;;;;;;;;;;;;;16.10;100.00;100427.13;5119363;27;47091;-95
2022/10/22 21:26:07;;;;;;;;;;;;;;;16.07;100.00;100427.25;5105258;27;45221;-96
2022/10/22 21:28:34;;;;;;;;;;;;;;;16.07;100.00;100431.72;5107873;27;45173;-95
2022/10/22 21:31:01;;;;;;;;;;;;;;;16.04;100.00;100432.72;5119497;27;45058;-95
2022/10/22 21:33:26;;;;;;;;;;;;;;;16.03;100.00;100432.78;5106593;27;46783;-96
2022/10/22 21:35:52;;;;;;;;;;;;;;;16.00;100.00;100431.13;5100186;27;45306;-96
2022/10/22 21:38:18;;;;;;;;;;;;;;;15.99;100.00;100435.59;5101066;27;45445;-96
2022/10/22 21:40:43;;;;;;;;;;;;;;;15.97;100.00;100425.94;5105681;27;45558;-96
2022/10/22 21:43:09;;;;;;;;;;;;;;;15.95;100.00;100414.47;5104402;27;47225;-96
2022/10/22 21:45:34;;;;;;;;;;;;;;;15.93;100.00;100419.88;5101577;27;45287;-95
2022/10/22 21:48:00;;;;;;;;;8.00;8.00;;;;;15.19;100.00;100305.88;5097727;27;45532;-95
2022/10/22 21:50:25;;;;;;;;;8.50;7.00;;;;;14.07;100.00;100100.53;5103887;27;45217;-96
2022/10/22 21:52:50;;;;;;;;;6.75;6.25;;;;;14.84;100.00;100236.44;5084854;27;47329;-96
2022/10/22 21:55:16;;;;;;;;;6.50;6.00;;;;;16.05;100.00;100430.91;5084948;27;45333;-95
2022/10/22 21:57:41;;;;;;;;;8.50;4.00;;;;;13.77;100.00;100034.47;5085212;27;45208;-96
2022/10/22 22:00:08;;;;;;;;;7.00;7.00;;;;;15.46;100.00;100309.13;5106183;27;45725;-95
2022/10/22 22:02:34;;;;;;;;;6.25;6.25;;;;;15.69;100.00;100351.69;5110424;27;46685;-96
2022/10/22 22:04:59;;;;;;;;;9.25;8.00;;;;;15.06;100.00;100228.38;5103381;27;45302;-96
2022/10/22 22:07:25;;;;;;;;;6.50;6.50;;;;;15.09;100.00;100257.53;5102792;27;45453;-95
2022/10/22 22:09:50;;;;;;;;;6.25;6.25;;;;;14.80;100.00;100191.41;5092071;27;45301;-96
2022/10/22 22:12:16;;;;;;;;;5.00;5.00;;;;;15.28;100.00;100262.88;5103340;27;46645;-96
2022/10/22 22:14:42;;;;;;;;;6.50;6.00;;;;;15.45;100.00;100299.41;5097349;27;45241;-95
2022/10/22 22:17:09;;;;;;;;;5.25;5.25;;;;;14.51;100.00;100143.81;5107075;27;44755;-96
2022/10/22 22:19:36;;;;;;;;;6.50;5.50;;;;;15.25;100.00;100248.84;5083995;27;45547;-95
2022/10/22 22:25:32;;;;;;;;;7.50;6.75;;;;;15.01;100.00;100206.41;5109790;27;45252;-96
2022/10/22 22:31:31;;;;;;;;;6.50;6.00;;;;;16.03;100.00;100385.66;5103010;27;45327;-96
2022/10/22 22:34:02;;;;;;;;;7.25;6.00;;;;;15.03;100.00;100217.88;5091770;27;47179;-96
2022/10/22 22:36:32;;;;;;;;;8.25;7.00;;;;;15.08;100.00;100223.00;5084462;27;45373;-93
2022/10/22 22:38:58;;;;;;;;;6.75;5.75;;;;;15.07;100.00;100231.91;5083024;27;45492;-93
2022/10/22 22:41:23;;;;;;;;;5.00;5.00;;;;;15.39;100.00;100291.69;5100243;27;45436;-93
2022/10/22 22:43:49;;;;;;;;;7.25;7.25;;;;;15.22;100.00;100267.63;5088123;27;48145;-92
2022/10/22 22:46:14;;;;;;;;;7.50;6.25;;;;;15.43;100.00;100285.31;5103170;27;45189;-91
2022/10/22 22:48:43;;;;;;;;;6.75;6.75;;;;;15.42;100.00;100275.56;5123892;27;45440;-93
2022/10/22 22:51:09;;;;;;;;;6.75;5.25;;;;;15.12;100.00;100232.56;5121030;27;45634;-94
2022/10/22 22:53:35;;;;;;;;;6.00;5.25;;;;;15.02;100.00;100228.59;5120920;27;47166;-93
2022/10/22 22:56:07;;;;;;;;;5.25;5.25;;;;;15.97;100.00;100368.19;5103961;27;45408;-93
2022/10/22 22:58:36;;;;;;;;;4.50;4.25;;;;;15.21;100.00;100245.47;5125232;27;45234;-93
2022/10/22 23:01:17;;;;;;;;;9.50;7.25;;;;;14.40;100.00;100107.06;5131638;27;45333;-92
2022/10/22 23:03:46;;;;;;;;;5.50;5.25;;;;;14.83;100.00;100169.97;5123978;27;46608;-93
2022/10/22 23:06:13;;;;;;;;;2.00;2.00;;;;;15.02;100.00;100208.16;5111201;27;46105;-95
2022/10/22 23:08:39;;;;;;;;;5.00;5.00;;;;;14.70;100.00;100149.25;5125444;27;45350;-95
2022/10/22 23:11:11;;;;;;;;;6.50;5.50;;;;;16.00;100.00;100356.50;5093137;27;45247;-96
2022/10/22 23:13:41;;;;;;;;;6.50;6.00;;;;;14.81;100.00;100145.25;5115704;27;47120;-95
2022/10/22 23:16:10;;;;;;;;;8.25;8.00;;;;;15.20;100.00;100187.00;5118294;27;45235;-96
2022/10/22 23:18:36;;;;;;;;;8.50;8.00;;;;;15.09;100.00;100172.34;5116046;27;44818;-95
2022/10/22 23:21:05;;;;;;;;;5.75;5.75;;;;;14.60;100.00;100107.97;5113909;27;45247;-95
2022/10/22 23:23:33;;;;;;;;;5.50;5.50;;;;;13.77;100.00;99973.38;5112368;27;47328;-96
2022/10/22 23:25:59;;;;;;;;;6.75;5.75;;;;;14.61;100.00;100085.81;5125722;27;45143;-95
2022/10/22 23:28:25;;;;;;;;;8.25;8.25;;;;;14.89;100.00;100149.31;5109877;27;44878;-96
2022/10/22 23:30:50;;;;;;;;;6.75;6.00;;;;;14.46;100.00;100059.88;5109335;27;45282;-96
2022/10/22 23:33:18;;;;;;;;;;;;;;;15.94;100.00;100303.47;5105822;27;46657;-95
2022/10/22 23:35:43;;;;;;;;;;;;;;;15.98;100.00;100295.25;5131214;27;45212;-95
2022/10/22 23:38:12;;;;;;;;;7.00;7.00;;;;;14.63;100.00;100083.94;5127998;27;45195;-95
2022/10/22 23:40:38;;;;;;;;;7.00;7.00;;;;;14.27;100.00;100023.47;5135707;27;44927;-95
2022/10/22 23:43:04;;;;;;;;;6.75;6.25;;;;;13.86;100.00;99967.66;5123184;27;47260;-96
2022/10/22 23:45:34;;;;;;;;;7.60;5.40;;;;;15.38;100.00;100203.88;5120597;27;44910;-92
2022/10/22 23:47:59;;;;;;;;;;;;;;;15.98;100.00;100291.75;5127580;27;45352;-92
2022/10/22 23:50:25;;;;;;;;;6.00;6.00;;;;;15.90;100.00;100293.91;5120735;27;45329;-93
2022/10/22 23:52:50;;;;;;;;;6.00;6.00;;;;;15.39;100.00;100200.31;5121496;27;47540;-93
2022/10/22 23:55:17;;;;;;;;;8.25;5.00;;;;;15.56;100.00;100221.72;5118144;27;45281;-93
2022/10/22 23:57:42;;;;;;;;;7.25;7.25;;;;;14.07;100.00;99973.00;5103662;27;45194;-95
